<?xml version="1.0" encoding="UTF-8" standalone="no" ?>
<gpx xmlns="http://www.topografix.com/GPX/1/1" xmlns:xsi="http://www.w3.org/2001/XMLSchema-instance" xsi:schemaLocation="http://www.topografix.com/GPX/1/1 http://www.topografix.com/GPX/1/1/gpx.xsd" version="1.1" creator="VisuGPX - https://www.visugpx.com">
  <metadata>
    <name>Tour de France 2019</name>
    <desc><![CDATA[4272km en 2 mois en tandem avec notre petit chien dans le panier avant]]></desc>
  </metadata>
  <trk>
    <name><![CDATA[Tracé 20191031-151424]]></name>
    <trkseg>
      <trkpt lat="45.04861" lon="1.03217">
        <ele>138.915</ele>
        <time>2019-10-31T14:24:09Z</time>
      </trkpt>
      <trkpt lat="45.04691" lon="1.03186">
        <ele>118.637</ele>
        <time>2019-10-31T14:24:42Z</time>
      </trkpt>
      <trkpt lat="45.04674" lon="1.03045">
        <ele>113.41</ele>
        <time>2019-10-31T14:25:15Z</time>
      </trkpt>
      <trkpt lat="45.04757" lon="1.02856">
        <ele>114.26</ele>
        <time>2019-10-31T14:25:48Z</time>
      </trkpt>
      <trkpt lat="45.04895" lon="1.02736">
        <ele>115.818</ele>
        <time>2019-10-31T14:26:21Z</time>
      </trkpt>
      <trkpt lat="45.05025" lon="1.0262">
        <ele>114.951</ele>
        <time>2019-10-31T14:26:54Z</time>
      </trkpt>
      <trkpt lat="45.05141" lon="1.02519">
        <ele>111.694</ele>
        <time>2019-10-31T14:27:27Z</time>
      </trkpt>
      <trkpt lat="45.05252" lon="1.02423">
        <ele>119.231</ele>
        <time>2019-10-31T14:28:00Z</time>
      </trkpt>
      <trkpt lat="45.05379" lon="1.02328">
        <ele>122.376</ele>
        <time>2019-10-31T14:28:36Z</time>
      </trkpt>
      <trkpt lat="45.05436" lon="1.02211">
        <ele>123.175</ele>
        <time>2019-10-31T14:29:09Z</time>
      </trkpt>
      <trkpt lat="45.05416" lon="1.02109">
        <ele>128.637</ele>
        <time>2019-10-31T14:29:42Z</time>
      </trkpt>
      <trkpt lat="45.05393" lon="1.02005">
        <ele>134.109</ele>
        <time>2019-10-31T14:30:15Z</time>
      </trkpt>
      <trkpt lat="45.05359" lon="1.01913">
        <ele>140.125</ele>
        <time>2019-10-31T14:30:48Z</time>
      </trkpt>
      <trkpt lat="45.05342" lon="1.0182">
        <ele>143.836</ele>
        <time>2019-10-31T14:31:21Z</time>
      </trkpt>
      <trkpt lat="45.05357" lon="1.01729">
        <ele>152.5</ele>
        <time>2019-10-31T14:31:54Z</time>
      </trkpt>
      <trkpt lat="45.05372" lon="1.01632">
        <ele>162.176</ele>
        <time>2019-10-31T14:32:27Z</time>
      </trkpt>
      <trkpt lat="45.05391" lon="1.01523">
        <ele>167.71</ele>
        <time>2019-10-31T14:33:00Z</time>
      </trkpt>
      <trkpt lat="45.05394" lon="1.01411">
        <ele>163.072</ele>
        <time>2019-10-31T14:33:36Z</time>
      </trkpt>
      <trkpt lat="45.05382" lon="1.0131">
        <ele>161.753</ele>
        <time>2019-10-31T14:34:09Z</time>
      </trkpt>
      <trkpt lat="45.05379" lon="1.01203">
        <ele>168.326</ele>
        <time>2019-10-31T14:34:42Z</time>
      </trkpt>
      <trkpt lat="45.05359" lon="1.01114">
        <ele>176.066</ele>
        <time>2019-10-31T14:35:15Z</time>
      </trkpt>
      <trkpt lat="45.05319" lon="1.01012">
        <ele>186.837</ele>
        <time>2019-10-31T14:35:48Z</time>
      </trkpt>
      <trkpt lat="45.05297" lon="1.00916">
        <ele>191.007</ele>
        <time>2019-10-31T14:36:21Z</time>
      </trkpt>
      <trkpt lat="45.05266" lon="1.00801">
        <ele>192.524</ele>
        <time>2019-10-31T14:36:54Z</time>
      </trkpt>
      <trkpt lat="45.05232" lon="1.00685">
        <ele>202.798</ele>
        <time>2019-10-31T14:37:27Z</time>
      </trkpt>
      <trkpt lat="45.0519" lon="1.00571">
        <ele>199.586</ele>
        <time>2019-10-31T14:38:03Z</time>
      </trkpt>
      <trkpt lat="45.05157" lon="1.00457">
        <ele>207.294</ele>
        <time>2019-10-31T14:38:36Z</time>
      </trkpt>
      <trkpt lat="45.05127" lon="1.00349">
        <ele>207.035</ele>
        <time>2019-10-31T14:39:09Z</time>
      </trkpt>
      <trkpt lat="45.0508" lon="1.00232">
        <ele>209.967</ele>
        <time>2019-10-31T14:39:42Z</time>
      </trkpt>
      <trkpt lat="45.05048" lon="1.00135">
        <ele>202.801</ele>
        <time>2019-10-31T14:40:15Z</time>
      </trkpt>
      <trkpt lat="45.05021" lon="1.00025">
        <ele>208.81</ele>
        <time>2019-10-31T14:40:48Z</time>
      </trkpt>
      <trkpt lat="45.04997" lon="0.99915">
        <ele>211.572</ele>
        <time>2019-10-31T14:41:21Z</time>
      </trkpt>
      <trkpt lat="45.04974" lon="0.99809">
        <ele>213.615</ele>
        <time>2019-10-31T14:41:54Z</time>
      </trkpt>
      <trkpt lat="45.04957" lon="0.9969">
        <ele>219.252</ele>
        <time>2019-10-31T14:42:30Z</time>
      </trkpt>
      <trkpt lat="45.0495" lon="0.99583">
        <ele>224.124</ele>
        <time>2019-10-31T14:43:03Z</time>
      </trkpt>
      <trkpt lat="45.04948" lon="0.99468">
        <ele>226.605</ele>
        <time>2019-10-31T14:43:36Z</time>
      </trkpt>
      <trkpt lat="45.04922" lon="0.99366">
        <ele>228.652</ele>
        <time>2019-10-31T14:44:09Z</time>
      </trkpt>
      <trkpt lat="45.04875" lon="0.99273">
        <ele>230.088</ele>
        <time>2019-10-31T14:44:42Z</time>
      </trkpt>
      <trkpt lat="45.04826" lon="0.99198">
        <ele>241.377</ele>
        <time>2019-10-31T14:45:15Z</time>
      </trkpt>
      <trkpt lat="45.04767" lon="0.99126">
        <ele>251.609</ele>
        <time>2019-10-31T14:45:48Z</time>
      </trkpt>
      <trkpt lat="45.04709" lon="0.9906">
        <ele>252.944</ele>
        <time>2019-10-31T14:46:21.001Z</time>
      </trkpt>
      <trkpt lat="45.04634" lon="0.99012">
        <ele>262.213</ele>
        <time>2019-10-31T14:46:54.001Z</time>
      </trkpt>
      <trkpt lat="45.04557" lon="0.98936">
        <ele>257.228</ele>
        <time>2019-10-31T14:47:30.001Z</time>
      </trkpt>
      <trkpt lat="45.0449" lon="0.98876">
        <ele>261.101</ele>
        <time>2019-10-31T14:48:03.001Z</time>
      </trkpt>
      <trkpt lat="45.04427" lon="0.988">
        <ele>254.169</ele>
        <time>2019-10-31T14:48:36.001Z</time>
      </trkpt>
      <trkpt lat="45.04416" lon="0.98702">
        <ele>259.141</ele>
        <time>2019-10-31T14:49:09.001Z</time>
      </trkpt>
      <trkpt lat="45.04425" lon="0.98594">
        <ele>263.624</ele>
        <time>2019-10-31T14:49:42.001Z</time>
      </trkpt>
      <trkpt lat="45.04468" lon="0.98509">
        <ele>266.399</ele>
        <time>2019-10-31T14:50:15.001Z</time>
      </trkpt>
      <trkpt lat="45.04492" lon="0.98413">
        <ele>271.484</ele>
        <time>2019-10-31T14:50:48.001Z</time>
      </trkpt>
      <trkpt lat="45.04473" lon="0.98279">
        <ele>271.379</ele>
        <time>2019-10-31T14:51:21.001Z</time>
      </trkpt>
      <trkpt lat="45.04501" lon="0.98076">
        <ele>274.458</ele>
        <time>2019-10-31T14:51:57.001Z</time>
      </trkpt>
      <trkpt lat="45.04452" lon="0.97969">
        <ele>276.722</ele>
        <time>2019-10-31T14:52:30.001Z</time>
      </trkpt>
      <trkpt lat="45.04378" lon="0.98015">
        <ele>282.953</ele>
        <time>2019-10-31T14:53:03.001Z</time>
      </trkpt>
      <trkpt lat="45.04263" lon="0.98071">
        <ele>276.176</ele>
        <time>2019-10-31T14:53:36.001Z</time>
      </trkpt>
      <trkpt lat="45.0415" lon="0.9802">
        <ele>279.402</ele>
        <time>2019-10-31T14:54:09.001Z</time>
      </trkpt>
      <trkpt lat="45.04051" lon="0.98001">
        <ele>273.667</ele>
        <time>2019-10-31T14:54:42.001Z</time>
      </trkpt>
      <trkpt lat="45.03953" lon="0.98027">
        <ele>279.384</ele>
        <time>2019-10-31T14:55:15.001Z</time>
      </trkpt>
      <trkpt lat="45.03864" lon="0.97982">
        <ele>286.156</ele>
        <time>2019-10-31T14:55:48.001Z</time>
      </trkpt>
      <trkpt lat="45.03733" lon="0.97994">
        <ele>286.912</ele>
        <time>2019-10-31T14:56:24.001Z</time>
      </trkpt>
      <trkpt lat="45.03609" lon="0.97932">
        <ele>284.37</ele>
        <time>2019-10-31T14:56:57.001Z</time>
      </trkpt>
      <trkpt lat="45.03467" lon="0.97906">
        <ele>281.832</ele>
        <time>2019-10-31T14:57:30.001Z</time>
      </trkpt>
      <trkpt lat="45.03312" lon="0.97951">
        <ele>283.821</ele>
        <time>2019-10-31T14:58:03.001Z</time>
      </trkpt>
      <trkpt lat="45.03115" lon="0.97999">
        <ele>283.636</ele>
        <time>2019-10-31T14:58:36.001Z</time>
      </trkpt>
      <trkpt lat="45.0287" lon="0.9805">
        <ele>276.125</ele>
        <time>2019-10-31T14:59:09.001Z</time>
      </trkpt>
      <trkpt lat="45.02649" lon="0.98029">
        <ele>272.646</ele>
        <time>2019-10-31T14:59:42.001Z</time>
      </trkpt>
      <trkpt lat="45.02436" lon="0.97897">
        <ele>265.215</ele>
        <time>2019-10-31T15:00:15.001Z</time>
      </trkpt>
      <trkpt lat="45.02385" lon="0.97667">
        <ele>266.652</ele>
        <time>2019-10-31T15:00:48.001Z</time>
      </trkpt>
      <trkpt lat="45.02226" lon="0.97585">
        <ele>270.453</ele>
        <time>2019-10-31T15:01:24.001Z</time>
      </trkpt>
      <trkpt lat="45.021" lon="0.97414">
        <ele>271.827</ele>
        <time>2019-10-31T15:01:57.001Z</time>
      </trkpt>
      <trkpt lat="45.01986" lon="0.97233">
        <ele>273.783</ele>
        <time>2019-10-31T15:02:30.001Z</time>
      </trkpt>
      <trkpt lat="45.01881" lon="0.97035">
        <ele>272.366</ele>
        <time>2019-10-31T15:03:03.001Z</time>
      </trkpt>
      <trkpt lat="45.01687" lon="0.96822">
        <ele>261.208</ele>
        <time>2019-10-31T15:03:36.001Z</time>
      </trkpt>
      <trkpt lat="45.01458" lon="0.96601">
        <ele>254.8</ele>
        <time>2019-10-31T15:04:09.001Z</time>
      </trkpt>
      <trkpt lat="45.01443" lon="0.96195">
        <ele>239.191</ele>
        <time>2019-10-31T15:04:42.001Z</time>
      </trkpt>
      <trkpt lat="45.01373" lon="0.95894">
        <ele>224.622</ele>
        <time>2019-10-31T15:05:15.001Z</time>
      </trkpt>
      <trkpt lat="45.01028" lon="0.95621">
        <ele>207.332</ele>
        <time>2019-10-31T15:05:51.001Z</time>
      </trkpt>
      <trkpt lat="45.00928" lon="0.95338">
        <ele>198.574</ele>
        <time>2019-10-31T15:06:24.001Z</time>
      </trkpt>
      <trkpt lat="45.00706" lon="0.95109">
        <ele>188.548</ele>
        <time>2019-10-31T15:06:57.001Z</time>
      </trkpt>
      <trkpt lat="45.00511" lon="0.95292">
        <ele>174.884</ele>
        <time>2019-10-31T15:07:30.001Z</time>
      </trkpt>
      <trkpt lat="45.00343" lon="0.95031">
        <ele>165.749</ele>
        <time>2019-10-31T15:08:03.001Z</time>
      </trkpt>
      <trkpt lat="44.99984" lon="0.94909">
        <ele>143.63</ele>
        <time>2019-10-31T15:08:36.001Z</time>
      </trkpt>
      <trkpt lat="44.99803" lon="0.94788">
        <ele>128.555</ele>
        <time>2019-10-31T15:09:09.001Z</time>
      </trkpt>
      <trkpt lat="44.99481" lon="0.94657">
        <ele>103.751</ele>
        <time>2019-10-31T15:09:42.001Z</time>
      </trkpt>
      <trkpt lat="44.99344" lon="0.94468">
        <ele>102.282</ele>
        <time>2019-10-31T15:10:18.001Z</time>
      </trkpt>
      <trkpt lat="44.99209" lon="0.9433">
        <ele>106.085</ele>
        <time>2019-10-31T15:10:51.001Z</time>
      </trkpt>
      <trkpt lat="44.99247" lon="0.94185">
        <ele>113.946</ele>
        <time>2019-10-31T15:11:24.001Z</time>
      </trkpt>
      <trkpt lat="44.99303" lon="0.94106">
        <ele>115.339</ele>
        <time>2019-10-31T15:11:57.001Z</time>
      </trkpt>
      <trkpt lat="44.99365" lon="0.9405">
        <ele>123.009</ele>
        <time>2019-10-31T15:12:30.001Z</time>
      </trkpt>
      <trkpt lat="44.99415" lon="0.93957">
        <ele>134.169</ele>
        <time>2019-10-31T15:13:03.001Z</time>
      </trkpt>
      <trkpt lat="44.99436" lon="0.93834">
        <ele>140.257</ele>
        <time>2019-10-31T15:13:36.001Z</time>
      </trkpt>
      <trkpt lat="44.99491" lon="0.93739">
        <ele>143.999</ele>
        <time>2019-10-31T15:14:09.001Z</time>
      </trkpt>
      <trkpt lat="44.99538" lon="0.93689">
        <ele>144.011</ele>
        <time>2019-10-31T15:16:06.001Z</time>
      </trkpt>
      <trkpt lat="44.9959" lon="0.93539">
        <ele>132.336</ele>
        <time>2019-10-31T15:16:42.001Z</time>
      </trkpt>
      <trkpt lat="44.99603" lon="0.93383">
        <ele>136.318</ele>
        <time>2019-10-31T15:17:15.001Z</time>
      </trkpt>
      <trkpt lat="44.99634" lon="0.93252">
        <ele>137.083</ele>
        <time>2019-10-31T15:17:48.001Z</time>
      </trkpt>
      <trkpt lat="44.99704" lon="0.932">
        <ele>132.197</ele>
        <time>2019-10-31T15:18:21.001Z</time>
      </trkpt>
      <trkpt lat="44.99767" lon="0.93157">
        <ele>145.098</ele>
        <time>2019-10-31T15:18:54.001Z</time>
      </trkpt>
      <trkpt lat="44.998" lon="0.93064">
        <ele>152.61</ele>
        <time>2019-10-31T15:19:27.001Z</time>
      </trkpt>
      <trkpt lat="44.99814" lon="0.92969">
        <ele>162.924</ele>
        <time>2019-10-31T15:20:00Z</time>
      </trkpt>
      <trkpt lat="44.9985" lon="0.92889">
        <ele>157.923</ele>
        <time>2019-10-31T15:20:33.001Z</time>
      </trkpt>
      <trkpt lat="44.99897" lon="0.928">
        <ele>154.545</ele>
        <time>2019-10-31T15:21:09.001Z</time>
      </trkpt>
      <trkpt lat="44.99939" lon="0.9272">
        <ele>159.585</ele>
        <time>2019-10-31T15:21:42.001Z</time>
      </trkpt>
      <trkpt lat="44.99967" lon="0.92628">
        <ele>164.69</ele>
        <time>2019-10-31T15:22:15.001Z</time>
      </trkpt>
      <trkpt lat="44.99891" lon="0.92577">
        <ele>164.66</ele>
        <time>2019-10-31T15:22:48.001Z</time>
      </trkpt>
      <trkpt lat="44.99819" lon="0.92496">
        <ele>175.349</ele>
        <time>2019-10-31T15:23:21.001Z</time>
      </trkpt>
      <trkpt lat="44.99755" lon="0.924">
        <ele>179.813</ele>
        <time>2019-10-31T15:23:54.001Z</time>
      </trkpt>
      <trkpt lat="44.99678" lon="0.9231">
        <ele>178.077</ele>
        <time>2019-10-31T15:24:27.001Z</time>
      </trkpt>
      <trkpt lat="44.99631" lon="0.92229">
        <ele>180.801</ele>
        <time>2019-10-31T15:25:00Z</time>
      </trkpt>
      <trkpt lat="44.99591" lon="0.92142">
        <ele>180.435</ele>
        <time>2019-10-31T15:25:36.001Z</time>
      </trkpt>
      <trkpt lat="44.99524" lon="0.92123">
        <ele>186.112</ele>
        <time>2019-10-31T15:26:09.001Z</time>
      </trkpt>
      <trkpt lat="44.99458" lon="0.92118">
        <ele>190.069</ele>
        <time>2019-10-31T15:26:42.001Z</time>
      </trkpt>
      <trkpt lat="44.99391" lon="0.92084">
        <ele>191.697</ele>
        <time>2019-10-31T15:27:15.001Z</time>
      </trkpt>
      <trkpt lat="44.99323" lon="0.92051">
        <ele>196.632</ele>
        <time>2019-10-31T15:27:48.001Z</time>
      </trkpt>
      <trkpt lat="44.99262" lon="0.92012">
        <ele>198.78</ele>
        <time>2019-10-31T15:28:21.001Z</time>
      </trkpt>
      <trkpt lat="44.99204" lon="0.91956">
        <ele>202.769</ele>
        <time>2019-10-31T15:28:54.001Z</time>
      </trkpt>
      <trkpt lat="44.99142" lon="0.91931">
        <ele>208.207</ele>
        <time>2019-10-31T15:29:27.001Z</time>
      </trkpt>
      <trkpt lat="44.99066" lon="0.91923">
        <ele>210.669</ele>
        <time>2019-10-31T15:30:00Z</time>
      </trkpt>
      <trkpt lat="44.99003" lon="0.9187">
        <ele>218.752</ele>
        <time>2019-10-31T15:30:36.001Z</time>
      </trkpt>
      <trkpt lat="44.98934" lon="0.91827">
        <ele>217.728</ele>
        <time>2019-10-31T15:31:09.001Z</time>
      </trkpt>
      <trkpt lat="44.98876" lon="0.91789">
        <ele>219.84</ele>
        <time>2019-10-31T15:31:45.001Z</time>
      </trkpt>
      <trkpt lat="44.98823" lon="0.9175">
        <ele>226.442</ele>
        <time>2019-10-31T15:32:24.001Z</time>
      </trkpt>
      <trkpt lat="44.98762" lon="0.91782">
        <ele>233.199</ele>
        <time>2019-10-31T15:33:06.001Z</time>
      </trkpt>
      <trkpt lat="44.98697" lon="0.91743">
        <ele>237.649</ele>
        <time>2019-10-31T15:33:39.001Z</time>
      </trkpt>
      <trkpt lat="44.98632" lon="0.91749">
        <ele>252.979</ele>
        <time>2019-10-31T15:34:15.001Z</time>
      </trkpt>
      <trkpt lat="44.98611" lon="0.91634">
        <ele>244.822</ele>
        <time>2019-10-31T15:34:48.001Z</time>
      </trkpt>
      <trkpt lat="44.9862" lon="0.91398">
        <ele>243.787</ele>
        <time>2019-10-31T15:35:24.001Z</time>
      </trkpt>
      <trkpt lat="44.98559" lon="0.91221">
        <ele>239.251</ele>
        <time>2019-10-31T15:35:57.001Z</time>
      </trkpt>
      <trkpt lat="44.98474" lon="0.91098">
        <ele>230.796</ele>
        <time>2019-10-31T15:36:30.001Z</time>
      </trkpt>
      <trkpt lat="44.98193" lon="0.90994">
        <ele>222.841</ele>
        <time>2019-10-31T15:37:03.001Z</time>
      </trkpt>
      <trkpt lat="44.97943" lon="0.90841">
        <ele>210.725</ele>
        <time>2019-10-31T15:37:36.001Z</time>
      </trkpt>
      <trkpt lat="44.97825" lon="0.90923">
        <ele>216.904</ele>
        <time>2019-10-31T15:38:09.001Z</time>
      </trkpt>
      <trkpt lat="44.97729" lon="0.90841">
        <ele>214.88</ele>
        <time>2019-10-31T15:38:42.001Z</time>
      </trkpt>
      <trkpt lat="44.97651" lon="0.9068">
        <ele>210.517</ele>
        <time>2019-10-31T15:39:15.001Z</time>
      </trkpt>
      <trkpt lat="44.97439" lon="0.90446">
        <ele>192.056</ele>
        <time>2019-10-31T15:39:51.001Z</time>
      </trkpt>
      <trkpt lat="44.97268" lon="0.90354">
        <ele>187.843</ele>
        <time>2019-10-31T15:40:51.001Z</time>
      </trkpt>
      <trkpt lat="44.97282" lon="0.90305">
        <ele>192.124</ele>
        <time>2019-10-31T15:41:30.001Z</time>
      </trkpt>
      <trkpt lat="44.97281" lon="0.90246">
        <ele>197.511</ele>
        <time>2019-10-31T15:43:18.001Z</time>
      </trkpt>
      <trkpt lat="44.9724" lon="0.90017">
        <ele>189.795</ele>
        <time>2019-10-31T15:43:51.001Z</time>
      </trkpt>
      <trkpt lat="44.97007" lon="0.90086">
        <ele>176.59</ele>
        <time>2019-10-31T15:44:24.001Z</time>
      </trkpt>
      <trkpt lat="44.96803" lon="0.90154">
        <ele>170.674</ele>
        <time>2019-10-31T15:44:57.001Z</time>
      </trkpt>
      <trkpt lat="44.96703" lon="0.90139">
        <ele>178.295</ele>
        <time>2019-10-31T15:45:33.001Z</time>
      </trkpt>
      <trkpt lat="44.96566" lon="0.90207">
        <ele>169.917</ele>
        <time>2019-10-31T15:46:06.001Z</time>
      </trkpt>
      <trkpt lat="44.96492" lon="0.90259">
        <ele>180.805</ele>
        <time>2019-10-31T15:46:48.001Z</time>
      </trkpt>
      <trkpt lat="44.96487" lon="0.9028">
        <ele>180.973</ele>
        <time>2019-10-31T15:49:15.001Z</time>
      </trkpt>
      <trkpt lat="44.96484" lon="0.90269">
        <ele>181.676</ele>
        <time>2019-10-31T15:50:12.001Z</time>
      </trkpt>
      <trkpt lat="44.96493" lon="0.90263">
        <ele>184.265</ele>
        <time>2019-10-31T15:56:45.001Z</time>
      </trkpt>
      <trkpt lat="44.96497" lon="0.90278">
        <ele>186.527</ele>
        <time>2019-10-31T15:58:36.001Z</time>
      </trkpt>
      <trkpt lat="44.96502" lon="0.90263">
        <ele>187.277</ele>
        <time>2019-10-31T16:00:15.001Z</time>
      </trkpt>
      <trkpt lat="44.965" lon="0.90278">
        <ele>217.857</ele>
        <time>2019-10-31T16:03:42.001Z</time>
      </trkpt>
      <trkpt lat="44.96535" lon="0.90263">
        <ele>176.753</ele>
        <time>2019-10-31T16:06:44.001Z</time>
      </trkpt>
    </trkseg>
  </trk>
</gpx>